Time;durP1;ratioP1;P1;durP2;ratioP2;P2;SDS_P1;SDS_P2;PMS_P1;PMS_P2;Temp;Humidity;BMP_temperature;BMP_pressure;BME280_temperature;BME280_humidity;BME280_pressure;Samples;Min_cycle;Max_cycle;Signal;HPM_P1;HPM_P2
2022/06/24 00:02:29;;;;;;;2.80;2.10;;;;;;;13.97;64.09;96706.31;107579;1270;35566;-80
2022/06/24 00:05:06;;;;;;;3.50;2.30;;;;;;;13.95;64.06;96705.23;107553;1271;38372;-80
2022/06/24 00:07:50;;;;;;;2.80;2.10;;;;;;;13.82;64.18;96705.42;107566;1271;50782;-79
2022/06/24 00:10:23;;;;;;;4.30;2.40;;;;;;;13.83;64.35;96706.31;107585;1270;34649;-80
2022/06/24 00:12:55;;;;;;;3.40;2.30;;;;;;;13.85;64.34;96711.75;107524;1271;39272;-80
2022/06/24 00:15:32;;;;;;;3.00;2.40;;;;;;;13.65;64.45;96710.69;107637;1270;41729;-80
2022/06/24 00:18:14;;;;;;;2.30;2.00;;;;;;;13.41;64.82;96715.88;107688;1270;34814;-80
2022/06/24 00:20:47;;;;;;;3.40;2.40;;;;;;;13.43;65.24;96716.48;107613;1270;45769;-79
2022/06/24 00:23:21;;;;;;;5.80;2.50;;;;;;;13.44;65.27;96716.88;107611;1271;32654;-80
2022/06/24 00:25:53;;;;;;;3.80;2.40;;;;;;;13.44;65.19;96716.23;107652;1270;30683;-79
2022/06/24 00:28:28;;;;;;;3.20;2.40;;;;;;;13.51;65.13;96716.91;107552;1270;45326;-80
2022/06/24 00:31:02;;;;;;;6.10;2.50;;;;;;;13.53;65.11;96720.62;107587;1271;49295;-80
2022/06/24 00:33:37;;;;;;;3.70;2.10;;;;;;;13.48;65.33;96718.29;107705;1270;33567;-80
2022/06/24 00:36:10;;;;;;;3.00;2.10;;;;;;;13.36;65.51;96716.22;107488;1271;47744;-80
2022/06/24 00:38:41;;;;;;;3.10;2.20;;;;;;;13.40;65.69;96715.90;107616;1271;45840;-79
2022/06/24 00:41:14;;;;;;;3.80;2.40;;;;;;;13.28;65.84;96716.36;107596;1271;35201;-79
2022/06/24 00:43:47;;;;;;;2.70;2.10;;;;;;;13.25;66.11;96719.34;107528;1271;55057;-79
2022/06/24 00:46:25;;;;;;;2.40;2.20;;;;;;;13.24;66.08;96719.20;107560;1270;37075;-80
2022/06/24 00:48:59;;;;;;;4.20;2.50;;;;;;;13.27;66.27;96718.73;107633;1271;31487;-80
2022/06/24 00:51:37;;;;;;;2.60;2.20;;;;;;;13.29;66.42;96714.21;107534;1271;45899;-80
2022/06/24 00:54:12;;;;;;;3.00;2.30;;;;;;;13.51;66.39;96711.86;107600;1270;33713;-79
2022/06/24 00:56:45;;;;;;;2.40;2.20;;;;;;;13.66;65.95;96715.36;107593;1271;40130;-80
2022/06/24 00:59:16;;;;;;;4.30;2.70;;;;;;;13.65;66.00;96718.69;107483;1271;67001;-79
2022/06/24 01:01:51;;;;;;;6.40;3.50;;;;;;;13.60;65.78;96721.83;107551;1271;34095;-79
2022/06/24 01:04:31;;;;;;;4.80;3.50;;;;;;;13.36;65.87;96722.88;107555;1270;39160;-80
2022/06/24 01:07:03;;;;;;;4.30;3.70;;;;;;;13.08;66.14;96723.84;107689;1271;29356;-80
2022/06/24 01:09:35;;;;;;;5.70;3.40;;;;;;;12.94;66.81;96718.06;107660;1270;35183;-80
2022/06/24 01:12:09;;;;;;;3.50;3.20;;;;;;;12.87;67.30;96719.23;107547;1269;57178;-79
2022/06/24 01:14:41;;;;;;;4.10;2.50;;;;;;;12.77;67.55;96714.58;107611;1270;37042;-79
2022/06/24 01:17:13;;;;;;;4.80;3.20;;;;;;;12.97;67.77;96709.59;107537;1271;49138;-79
2022/06/24 01:19:44;;;;;;;5.10;2.90;;;;;;;13.05;67.27;96708.14;107576;1271;51029;-80
2022/06/24 01:22:22;;;;;;;3.70;3.00;;;;;;;13.04;67.39;96700.86;107602;1271;48227;-79
2022/06/24 01:24:54;;;;;;;3.50;2.70;;;;;;;13.12;67.44;96702.45;107590;1271;38795;-80
2022/06/24 01:27:25;;;;;;;3.90;2.40;;;;;;;13.19;67.37;96701.44;107473;1271;70345;-79
2022/06/24 01:29:56;;;;;;;3.40;2.60;;;;;;;13.28;67.06;96695.75;107589;1271;32120;-79
2022/06/24 01:32:28;;;;;;;4.70;2.70;;;;;;;13.26;66.89;96687.86;107625;1271;37839;-80
2022/06/24 01:34:59;;;;;;;4.00;3.00;;;;;;;13.19;67.04;96687.42;107595;1271;38257;-80
2022/06/24 01:37:30;;;;;;;4.00;2.40;;;;;;;13.22;67.18;96686.43;107617;1271;34930;-80
2022/06/24 01:40:02;;;;;;;3.00;2.40;;;;;;;13.21;67.19;96685.11;107700;1271;38701;-79
2022/06/24 01:42:33;;;;;;;4.80;2.60;;;;;;;13.10;67.33;96686.02;107618;1271;33257;-80
2022/06/24 01:45:05;;;;;;;2.50;2.30;;;;;;;12.96;67.47;96690.77;107564;1271;33694;-80
2022/06/24 01:47:36;;;;;;;3.30;2.40;;;;;;;12.76;67.88;96695.78;107680;1270;51888;-78
2022/06/24 01:50:09;;;;;;;3.10;2.50;;;;;;;12.67;68.36;96697.88;107573;1271;38615;-79
2022/06/24 01:52:40;;;;;;;3.60;2.30;;;;;;;12.72;68.64;96700.51;107581;1271;33952;-80
2022/06/24 01:55:11;;;;;;;3.00;2.80;;;;;;;12.80;68.49;96697.41;107602;1270;30260;-80
2022/06/24 01:57:43;;;;;;;3.30;2.50;;;;;;;12.81;68.35;96698.77;107569;1271;38243;-80
2022/06/24 02:00:17;;;;;;;6.30;2.70;;;;;;;12.82;68.79;96693.71;107576;1270;37389;-79
2022/06/24 02:02:48;;;;;;;4.00;2.10;;;;;;;12.93;68.71;96691.73;107583;1271;42118;-79
2022/06/24 02:05:21;;;;;;;2.50;2.20;;;;;;;13.08;68.45;96687.02;106088;1271;2040459;-80
2022/06/24 02:07:52;;;;;;;3.10;2.40;;;;;;;13.04;68.08;96687.55;107594;1271;38053;-80
2022/06/24 02:13:30;;;;;;;2.30;2.10;;;;;;;12.62;68.53;96682.36;107558;1271;35299;-80
2022/06/24 02:16:03;;;;;;;2.70;2.30;;;;;;;12.41;68.99;96678.45;107615;1271;35036;-80
2022/06/24 02:18:35;;;;;;;2.70;2.40;;;;;;;12.38;69.32;96679.00;107628;1271;67683;-80
2022/06/24 02:21:06;;;;;;;2.90;2.40;;;;;;;12.46;69.48;96676.36;107633;1271;38272;-80
2022/06/24 02:23:37;;;;;;;3.60;2.60;;;;;;;12.64;69.56;96677.02;107641;1271;33084;-78
2022/06/24 02:26:09;;;;;;;3.80;2.60;;;;;;;12.73;69.23;96678.59;107543;1271;37150;-79
2022/06/24 02:28:40;;;;;;;4.10;2.30;;;;;;;12.72;69.05;96684.83;107586;1271;47736;-80
2022/06/24 02:31:11;;;;;;;4.20;2.50;;;;;;;12.63;69.27;96680.17;107638;1271;33451;-79
2022/06/24 02:33:43;;;;;;;4.50;2.70;;;;;;;12.63;69.48;96683.85;107574;1271;31265;-79
2022/06/24 02:36:14;;;;;;;3.60;2.50;;;;;;;12.37;69.58;96679.27;107620;1270;36026;-79
2022/06/24 02:38:45;;;;;;;4.10;2.30;;;;;;;12.27;70.22;96676.18;107548;1271;31635;-80
2022/06/24 02:41:16;;;;;;;3.10;2.20;;;;;;;12.31;70.49;96676.48;107636;1271;34014;-79
2022/06/24 02:43:47;;;;;;;3.10;2.50;;;;;;;12.34;70.62;96671.77;107595;1269;43705;-80
2022/06/24 02:46:18;;;;;;;2.90;2.20;;;;;;;12.57;70.58;96672.11;107535;1271;38508;-80
2022/06/24 02:48:50;;;;;;;4.30;2.10;;;;;;;12.63;70.29;96677.67;107573;1271;36304;-79
2022/06/24 02:51:21;;;;;;;2.80;2.20;;;;;;;12.43;70.47;96671.54;107555;1271;44680;-80
2022/06/24 02:53:52;;;;;;;2.40;2.20;;;;;;;12.45;70.86;96668.57;107594;1271;39734;-80
2022/06/24 02:56:24;;;;;;;3.10;2.50;;;;;;;12.62;70.85;96670.87;107630;1271;30693;-80
2022/06/24 02:58:55;;;;;;;5.30;2.60;;;;;;;12.64;70.34;96673.35;107568;1271;34548;-80
2022/06/24 03:01:26;;;;;;;3.70;2.50;;;;;;;12.58;70.53;96673.50;107535;1271;48179;-80
2022/06/24 03:03:57;;;;;;;2.70;2.20;;;;;;;12.63;70.47;96678.89;107516;1271;34503;-80
2022/06/24 03:06:28;;;;;;;3.10;2.20;;;;;;;12.63;70.61;96679.36;107545;1271;53572;-80
2022/06/24 03:08:59;;;;;;;2.80;2.10;;;;;;;12.57;70.73;96676.43;107569;1271;50619;-80
2022/06/24 03:11:30;;;;;;;5.00;2.20;;;;;;;12.63;70.91;96680.79;107613;1271;34967;-79
2022/06/24 03:14:01;;;;;;;4.00;2.60;;;;;;;12.57;71.12;96678.09;107687;1271;34945;-80
2022/06/24 03:16:33;;;;;;;3.30;2.30;;;;;;;12.56;71.39;96677.78;107644;1269;40133;-80
2022/06/24 03:19:04;;;;;;;3.80;2.20;;;;;;;12.65;71.34;96685.56;107645;1271;34275;-80
2022/06/24 03:21:35;;;;;;;2.80;2.20;;;;;;;12.70;71.29;96685.11;107714;1271;35967;-80
2022/06/24 03:24:08;;;;;;;3.90;2.30;;;;;;;12.78;71.47;96680.79;107631;1271;47390;-80
2022/06/24 03:26:40;;;;;;;5.90;2.20;;;;;;;12.89;71.43;96678.70;107551;1271;37343;-79
2022/06/24 03:29:11;;;;;;;3.70;2.20;;;;;;;12.95;71.31;96685.42;107618;1271;34415;-80
2022/06/24 03:31:42;;;;;;;3.80;2.30;;;;;;;12.98;71.35;96687.88;107539;1271;40571;-80
2022/06/24 03:34:13;;;;;;;3.00;2.00;;;;;;;12.98;71.55;96683.73;107595;1271;40706;-79
2022/06/24 03:36:44;;;;;;;3.30;2.20;;;;;;;13.11;71.54;96683.61;107607;1271;33442;-80
2022/06/24 03:39:15;;;;;;;5.10;2.10;;;;;;;13.27;71.50;96682.52;107514;1271;72314;-80
2022/06/24 03:41:47;;;;;;;2.30;2.10;;;;;;;13.34;71.46;96679.56;107600;1271;33924;-80
2022/06/24 03:44:18;;;;;;;2.50;2.10;;;;;;;13.48;71.48;96682.30;107572;1271;40351;-80
2022/06/24 03:46:49;;;;;;;2.90;2.20;;;;;;;13.56;71.48;96683.11;107512;1271;48367;-80
2022/06/24 03:49:20;;;;;;;2.90;2.10;;;;;;;13.59;71.50;96683.05;107525;1271;50403;-80
2022/06/24 03:51:51;;;;;;;4.10;2.30;;;;;;;13.69;71.64;96685.90;107550;1271;49414;-80
2022/06/24 03:54:22;;;;;;;3.00;1.80;;;;;;;13.78;71.45;96684.02;107537;1271;49812;-80
2022/06/24 03:56:54;;;;;;;3.10;1.90;;;;;;;13.91;71.57;96685.36;107584;1271;44871;-80
2022/06/24 03:59:25;;;;;;;2.60;2.10;;;;;;;14.05;71.36;96682.57;107637;1271;32240;-80
2022/06/24 04:01:56;;;;;;;4.40;2.40;;;;;;;14.17;71.46;96685.41;107513;1271;45623;-80
2022/06/24 04:04:27;;;;;;;3.20;2.00;;;;;;;14.31;71.27;96684.98;107523;1269;35753;-80
2022/06/24 04:06:59;;;;;;;3.40;2.30;;;;;;;14.43;71.11;96681.86;107625;1271;39926;-80
2022/06/24 04:09:30;;;;;;;1.90;1.70;;;;;;;14.59;71.41;96684.25;107551;1271;38257;-80
2022/06/24 04:12:01;;;;;;;2.10;2.00;;;;;;;14.73;71.54;96685.05;107398;1271;49451;-80
2022/06/24 04:17:21;;;;;;;3.10;2.20;;;;;;;15.01;72.31;96683.10;107483;1271;53128;-79
2022/06/24 04:19:53;;;;;;;3.80;1.80;;;;;;;15.13;72.06;96680.13;107577;1271;38599;-80
2022/06/24 04:22:24;;;;;;;3.70;2.00;;;;;;;15.34;71.30;96684.21;107581;1271;31761;-80
2022/06/24 04:24:55;;;;;;;2.80;2.60;;;;;;;15.56;71.19;96690.58;107555;1271;59191;-80
2022/06/24 04:27:26;;;;;;;3.60;2.50;;;;;;;15.74;72.29;96696.87;107556;1271;43145;-80
2022/06/24 04:30:02;;;;;;;2.40;2.20;;;;;;;15.87;72.61;96695.81;107549;1271;37480;-80
2022/06/24 04:32:33;;;;;;;2.70;2.10;;;;;;;15.99;72.07;96694.56;107584;1271;46921;-80
2022/06/24 04:35:07;;;;;;;4.60;2.20;;;;;;;16.17;71.65;96698.92;107561;1271;64620;-80
2022/06/24 04:37:39;;;;;;;3.60;1.90;;;;;;;16.35;71.66;96702.58;107616;1271;33390;-79
2022/06/24 04:40:13;;;;;;;3.10;2.10;;;;;;;16.53;71.27;96700.33;107497;1271;65882;-80
2022/06/24 04:42:45;;;;;;;4.40;2.00;;;;;;;16.70;70.97;96705.15;107641;1269;63973;-80
2022/06/24 04:45:17;;;;;;;2.50;2.30;;;;;;;16.83;70.14;96702.32;107542;1271;33371;-80
2022/06/24 04:47:48;;;;;;;2.60;2.00;;;;;;;16.97;69.00;96699.38;107504;1271;33137;-80
2022/06/24 04:50:20;;;;;;;3.70;2.30;;;;;;;17.11;68.35;96703.05;107542;1271;56494;-80
2022/06/24 04:52:51;;;;;;;4.70;2.20;;;;;;;17.26;67.83;96703.08;107570;1271;33944;-80
2022/06/24 04:55:22;;;;;;;3.70;2.00;;;;;;;17.42;66.99;96696.50;107565;1271;37148;-80
2022/06/24 04:57:54;;;;;;;5.20;2.30;;;;;;;17.59;66.47;96694.27;107501;1271;39989;-80
2022/06/24 05:00:27;;;;;;;5.40;2.70;;;;;;;17.76;65.82;96691.95;107459;1271;62234;-80
2022/06/24 05:02:58;;;;;;;3.70;2.70;;;;;;;17.95;65.49;96689.91;107571;1271;36674;-80
2022/06/24 05:05:29;;;;;;;5.90;2.60;;;;;;;18.19;64.80;96692.09;107500;1271;65961;-80
2022/06/24 05:08:00;;;;;;;2.40;2.20;;;;;;;18.40;64.41;96692.34;107505;1271;58778;-80
2022/06/24 05:10:32;;;;;;;2.80;2.10;;;;;;;18.62;63.91;96692.02;107485;1271;38908;-81
2022/06/24 05:13:03;;;;;;;3.40;2.50;;;;;;;18.87;63.16;96686.52;107598;1271;33733;-80
2022/06/24 05:15:35;;;;;;;5.50;2.40;;;;;;;19.15;62.43;96689.52;107611;1271;37631;-80
2022/06/24 05:18:08;;;;;;;2.70;2.20;;;;;;;19.53;61.93;96687.25;107501;1271;78668;-80
2022/06/24 05:20:40;;;;;;;5.90;2.30;;;;;;;20.02;61.24;96688.70;107597;1271;31904;-80
2022/06/24 05:23:12;;;;;;;5.50;2.90;;;;;;;20.56;60.64;96688.84;107548;1271;35032;-80
2022/06/24 05:25:43;;;;;;;4.70;2.20;;;;;;;21.84;60.44;96688.52;107427;1271;86459;-81
2022/06/24 05:28:14;;;;;;;5.00;2.30;;;;;;;24.79;58.28;96680.58;107502;1271;54525;-80
2022/06/24 05:30:46;;;;;;;5.00;2.00;;;;;;;27.99;54.00;96679.16;107588;1271;35703;-81
2022/06/24 05:33:17;;;;;;;4.70;1.90;;;;;;;30.82;49.67;96675.91;107519;1271;58037;-81
2022/06/24 05:35:48;;;;;;;2.00;1.50;;;;;;;33.11;44.54;96675.80;107520;1271;71740;-81
2022/06/24 05:38:21;;;;;;;4.10;2.10;;;;;;;34.96;40.78;96682.18;107575;1271;47927;-81
2022/06/24 05:40:53;;;;;;;2.80;1.90;;;;;;;36.46;37.36;96677.54;107530;1271;68958;-82
2022/06/24 05:43:25;;;;;;;2.50;1.60;;;;;;;37.80;34.92;96678.90;107568;1269;47530;-82
2022/06/24 05:45:57;;;;;;;2.80;1.60;;;;;;;38.91;32.86;96681.27;107586;1271;39799;-82
2022/06/24 05:48:30;;;;;;;4.00;1.70;;;;;;;39.77;30.66;96683.36;107528;1271;75672;-82
2022/06/24 05:51:07;;;;;;;2.70;1.60;;;;;;;40.19;28.06;96679.69;107560;1271;42396;-82
2022/06/24 05:56:28;;;;;;;1.60;1.40;;;;;;;41.87;26.58;96679.89;107482;1271;75987;-82
2022/06/24 05:59:00;;;;;;;3.60;1.60;;;;;;;42.10;25.12;96677.23;107485;1270;60489;-82
2022/06/24 06:01:31;;;;;;;2.30;1.70;;;;;;;42.68;24.63;96677.44;107601;1271;33619;-82
2022/06/24 06:04:03;;;;;;;5.30;1.60;;;;;;;43.40;23.87;96677.84;107569;1270;37890;-83
2022/06/24 06:06:34;;;;;;;2.40;1.70;;;;;;;43.90;22.87;96677.19;107621;1271;40823;-82
2022/06/24 06:09:06;;;;;;;1.80;1.60;;;;;;;43.75;21.81;96680.95;107654;1271;31333;-83
2022/06/24 06:11:38;;;;;;;4.00;1.80;;;;;;;44.04;21.72;96683.27;107531;1271;89809;-82
2022/06/24 06:14:10;;;;;;;1.80;1.70;;;;;;;44.63;21.13;96681.45;107576;1271;32739;-82
2022/06/24 06:16:41;;;;;;;1.80;1.60;;;;;;;44.43;17.81;96681.33;107656;1271;36689;-81
2022/06/24 06:19:12;;;;;;;1.80;1.70;;;;;;;40.99;16.74;96685.77;107539;1271;47135;-82
2022/06/24 06:21:45;;;;;;;1.70;1.40;;;;;;;38.63;19.81;96680.86;107709;1270;82463;-82
2022/06/24 06:24:16;;;;;;;3.70;1.80;;;;;;;39.01;21.03;96686.48;107611;1271;31912;-82
2022/06/24 06:26:49;;;;;;;1.90;1.40;;;;;;;39.97;20.70;96683.88;107607;1271;40597;-82
2022/06/24 06:29:21;;;;;;;1.30;1.20;;;;;;;39.97;18.32;96687.38;107577;1271;38869;-82
2022/06/24 06:31:53;;;;;;;3.50;1.70;;;;;;;38.49;18.97;96689.45;107453;1269;72174;-82
2022/06/24 06:34:24;;;;;;;2.30;1.30;;;;;;;37.65;20.01;96690.26;107536;1270;38132;-82
2022/06/24 06:36:56;;;;;;;2.10;1.50;;;;;;;37.30;19.96;96690.87;107511;1270;89816;-82
2022/06/24 06:39:27;;;;;;;1.60;1.30;;;;;;;37.42;20.24;96688.23;107471;1271;81295;-82
2022/06/24 06:41:59;;;;;;;2.00;1.20;;;;;;;37.94;19.99;96689.34;107649;1271;29177;-84
2022/06/24 06:44:31;;;;;;;1.40;1.20;;;;;;;37.65;18.86;96684.19;107487;1270;57888;-82
2022/06/24 06:47:02;;;;;;;1.90;1.20;;;;;;;36.52;18.27;96683.56;107556;1270;54170;-82
2022/06/24 06:49:34;;;;;;;1.20;1.10;;;;;;;35.30;19.35;96681.95;107620;1271;33427;-82
2022/06/24 06:52:06;;;;;;;2.10;1.30;;;;;;;34.65;20.04;96683.14;107541;1271;45436;-82
2022/06/24 06:54:38;;;;;;;1.30;1.10;;;;;;;34.51;20.51;96681.31;107541;1271;98026;-81
2022/06/24 06:57:09;;;;;;;1.40;1.10;;;;;;;34.81;20.47;96678.87;107578;1270;41204;-81
2022/06/24 06:59:40;;;;;;;1.30;1.20;;;;;;;34.33;19.69;96685.08;107588;1270;47707;-82
2022/06/24 07:02:11;;;;;;;2.40;1.20;;;;;;;33.68;20.76;96681.77;107569;1270;37860;-81
2022/06/24 07:04:42;;;;;;;1.20;1.10;;;;;;;34.50;20.92;96684.45;107578;1270;35494;-83
2022/06/24 07:07:13;;;;;;;1.80;1.10;;;;;;;34.62;19.89;96686.69;107555;1271;37743;-82
2022/06/24 07:09:45;;;;;;;2.50;1.20;;;;;;;34.58;20.68;96688.51;107508;1271;45663;-81
2022/06/24 07:12:17;;;;;;;4.50;1.60;;;;;;;34.28;19.82;96691.96;107610;1271;34967;-82
2022/06/24 07:14:48;;;;;;;2.50;1.40;;;;;;;34.22;20.39;96688.73;107580;1271;33350;-82
2022/06/24 07:17:20;;;;;;;2.20;1.30;;;;;;;35.19;20.31;96686.75;107523;1269;43460;-82
2022/06/24 07:19:51;;;;;;;1.20;1.10;;;;;;;35.44;19.03;96685.48;107583;1270;47105;-82
2022/06/24 07:22:22;;;;;;;1.60;1.00;;;;;;;35.17;19.53;96681.06;107576;1271;33878;-82
2022/06/24 07:24:53;;;;;;;1.80;1.40;;;;;;;35.59;19.55;96684.31;107447;1271;45536;-82
2022/06/24 07:27:24;;;;;;;1.20;1.10;;;;;;;35.59;18.98;96686.17;107544;1271;39487;-82
2022/06/24 07:29:56;;;;;;;1.00;0.90;;;;;;;35.05;19.52;96680.61;107599;1270;34711;-82
2022/06/24 07:32:27;;;;;;;0.80;0.80;;;;;;;35.16;18.83;96680.55;107550;1270;53378;-81
2022/06/24 07:34:58;;;;;;;1.30;1.20;;;;;;;35.03;19.08;96685.02;107513;1268;70732;-81
2022/06/24 07:37:29;;;;;;;1.00;0.90;;;;;;;35.28;19.48;96683.27;107582;1271;34958;-82
2022/06/24 07:40:00;;;;;;;1.80;1.10;;;;;;;35.43;19.54;96685.22;107500;1269;44572;-82
2022/06/24 07:42:31;;;;;;;0.80;0.80;;;;;;;35.79;19.30;96680.05;107520;1271;39782;-83
2022/06/24 07:45:03;;;;;;;2.00;1.00;;;;;;;35.59;18.68;96682.33;107607;1271;34434;-82
2022/06/24 07:47:36;;;;;;;1.80;1.30;;;;;;;35.41;19.54;96680.70;107602;1271;42065;-82
2022/06/24 07:50:09;;;;;;;2.60;1.10;;;;;;;35.36;19.51;96681.61;107559;1270;61043;-80
2022/06/24 07:52:40;;;;;;;2.90;1.20;;;;;;;35.31;19.59;96677.48;107604;1271;34686;-81
2022/06/24 07:58:13;;;;;;;1.00;0.90;;;;;;;35.14;20.05;96670.52;107390;1273;42158;-81
2022/06/24 08:00:44;;;;;;;1.00;1.00;;;;;;;35.63;20.38;96659.85;107506;1271;39331;-81
2022/06/24 08:03:15;;;;;;;1.30;1.20;;;;;;;35.93;19.19;96659.10;107524;1270;53824;-82
2022/06/24 08:05:46;;;;;;;1.50;1.00;;;;;;;35.94;19.23;96654.04;107435;1271;48244;-82
2022/06/24 08:08:19;;;;;;;1.20;1.10;;;;;;;36.57;19.31;96648.65;107488;1270;57360;-82
2022/06/24 08:10:50;;;;;;;2.40;1.30;;;;;;;36.51;18.40;96655.73;107527;1269;60879;-82
2022/06/24 08:13:21;;;;;;;0.90;0.90;;;;;;;35.83;19.05;96647.77;107484;1270;68548;-82
2022/06/24 08:15:53;;;;;;;1.40;1.30;;;;;;;35.98;19.19;96648.57;107574;1271;35814;-81
2022/06/24 08:18:26;;;;;;;1.30;1.10;;;;;;;36.16;19.39;96644.27;107511;1271;71793;-82
2022/06/24 08:20:57;;;;;;;2.10;1.30;;;;;;;36.79;19.35;96641.19;107572;1270;42437;-81
2022/06/24 08:23:28;;;;;;;1.90;1.20;;;;;;;37.09;18.89;96641.56;107527;1271;38079;-82
2022/06/24 08:25:59;;;;;;;1.60;1.20;;;;;;;36.62;18.99;96640.36;107535;1271;49621;-82
2022/06/24 08:28:30;;;;;;;1.10;1.10;;;;;;;36.23;19.09;96638.34;107530;1270;42201;-82
2022/06/24 08:31:02;;;;;;;1.20;1.10;;;;;;;35.97;18.95;96636.21;107594;1271;39267;-81
2022/06/24 08:33:33;;;;;;;2.40;1.40;;;;;;;35.85;18.99;96632.83;107582;1270;46039;-82
2022/06/24 08:36:05;;;;;;;3.50;1.50;;;;;;;35.84;19.48;96632.59;107644;1270;51053;-82
2022/06/24 08:38:36;;;;;;;1.60;1.40;;;;;;;36.66;19.96;96628.86;107618;1270;32730;-81
2022/06/24 08:41:07;;;;;;;1.80;1.60;;;;;;;37.52;19.23;96621.03;107628;1270;31730;-81
2022/06/24 08:43:39;;;;;;;1.80;1.20;;;;;;;37.63;18.57;96622.45;107548;1270;37324;-81
2022/06/24 08:46:10;;;;;;;1.30;1.20;;;;;;;36.83;19.19;96625.74;107540;1270;39517;-81
2022/06/24 08:48:41;;;;;;;1.30;1.20;;;;;;;35.97;19.68;96620.17;107626;1270;28797;-82
2022/06/24 08:51:15;;;;;;;2.20;1.20;;;;;;;35.26;21.02;96621.40;107580;1270;43472;-80
2022/06/24 08:53:49;;;;;;;1.60;1.20;;;;;;;33.20;21.50;96629.02;107554;1270;44909;-80
2022/06/24 08:56:21;;;;;;;1.60;1.40;;;;;;;30.91;23.87;96620.62;107556;1271;34004;-81
2022/06/24 08:58:54;;;;;;;1.50;1.30;;;;;;;29.57;25.11;96617.42;107525;1270;48061;-80
2022/06/24 09:01:25;;;;;;;3.60;1.60;;;;;;;29.03;26.06;96612.65;107577;1270;41927;-81
2022/06/24 09:03:56;;;;;;;1.50;1.30;;;;;;;28.83;27.16;96607.50;107556;1271;37359;-80
2022/06/24 09:06:37;;;;;;;3.20;1.30;;;;;;;28.48;27.75;96603.11;107577;1270;33101;-81
2022/06/24 09:09:09;;;;;;;2.30;1.50;;;;;;;28.06;27.85;96605.14;107613;1270;31851;-79
2022/06/24 09:11:42;;;;;;;2.90;1.60;;;;;;;27.51;29.45;96603.69;107541;1271;64399;-80
2022/06/24 09:14:13;;;;;;;2.60;1.40;;;;;;;27.32;30.25;96599.30;107486;1271;35943;-80
2022/06/24 09:16:44;;;;;;;3.40;1.60;;;;;;;27.13;30.26;96596.64;107493;1270;59459;-80
2022/06/24 09:19:17;;;;;;;3.20;1.50;;;;;;;26.92;30.77;96594.09;107511;1269;46335;-81
2022/06/24 09:21:48;;;;;;;2.80;1.90;;;;;;;26.99;31.17;96591.84;107603;1270;34997;-81
2022/06/24 09:24:19;;;;;;;1.40;1.30;;;;;;;27.06;30.77;96586.21;107636;1271;34897;-79
2022/06/24 09:27:00;;;;;;;2.10;1.50;;;;;;;26.55;29.82;96593.48;107493;1270;65145;-80
2022/06/24 09:29:31;;;;;;;1.90;1.30;;;;;;;26.15;30.34;96596.91;107619;1270;33513;-80
2022/06/24 09:32:11;;;;;;;2.50;1.50;;;;;;;26.25;31.14;96582.14;107573;1270;37965;-81
2022/06/24 09:35:00;;;;;;;5.80;1.20;;;;;;;26.55;29.84;96578.57;107635;1270;38117;-80
2022/06/24 09:37:39;;;;;;;1.70;1.30;;;;;;;26.49;30.15;96585.55;107618;1271;45414;-80
2022/06/24 09:40:26;;;;;;;3.60;1.20;;;;;;;26.65;29.84;96581.56;107565;1270;37221;-80
2022/06/24 09:42:59;;;;;;;2.70;1.40;;;;;;;26.65;29.59;96581.33;107608;1270;38699;-81
2022/06/24 09:45:46;;;;;;;1.40;1.30;;;;;;;26.42;30.09;96578.52;107610;1270;44423;-80
2022/06/24 09:48:29;;;;;;;1.90;1.20;;;;;;;26.65;30.60;96575.27;107576;1271;39227;-80
2022/06/24 09:51:01;;;;;;;1.60;1.40;;;;;;;26.44;30.39;96574.41;107548;1270;43819;-81
2022/06/24 09:53:36;;;;;;;2.00;1.80;;;;;;;26.41;31.05;96573.61;107618;1270;31061;-81
2022/06/24 09:56:09;;;;;;;1.20;1.10;;;;;;;26.81;31.35;96568.70;107755;1270;26127;-81
2022/06/24 09:58:42;;;;;;;1.50;1.00;;;;;;;27.01;30.93;96571.09;107337;1271;287788;-80
2022/06/24 10:01:13;;;;;;;1.60;1.30;;;;;;;26.79;29.92;96575.16;107601;1270;34671;-81
2022/06/24 10:03:53;;;;;;;1.30;1.20;;;;;;;26.70;30.68;96568.36;107584;1270;35151;-80
2022/06/24 10:06:25;;;;;;;2.40;1.30;;;;;;;26.74;30.81;96559.84;107492;1271;37292;-80
2022/06/24 10:08:57;;;;;;;2.00;1.10;;;;;;;26.92;30.93;96556.38;107510;1270;42507;-81
2022/06/24 10:11:29;;;;;;;3.40;1.50;;;;;;;27.06;30.34;96557.45;107578;1271;32568;-80
2022/06/24 10:14:01;;;;;;;1.40;1.30;;;;;;;26.76;29.66;96561.55;107598;1270;40342;-80
2022/06/24 10:16:32;;;;;;;1.40;1.30;;;;;;;26.46;29.69;96558.50;107541;1271;57390;-80
2022/06/24 10:19:06;;;;;;;1.40;1.30;;;;;;;26.42;29.63;96552.20;107672;1270;33153;-80
2022/06/24 10:21:38;;;;;;;1.60;1.40;;;;;;;26.43;29.73;96545.59;107738;1270;31878;-80
2022/06/24 10:24:17;;;;;;;1.90;1.20;;;;;;;26.48;30.33;96545.55;107578;1270;33345;-79
2022/06/24 10:26:51;;;;;;;1.70;1.40;;;;;;;26.35;30.52;96547.88;107621;1270;48445;-79
2022/06/24 10:29:33;;;;;;;1.70;1.30;;;;;;;26.30;30.94;96545.42;107638;1270;32785;-80
2022/06/24 10:32:11;;;;;;;2.20;1.50;;;;;;;26.37;30.54;96543.77;107724;1269;47850;-79
2022/06/24 10:34:46;;;;;;;1.70;0.90;;;;;;;26.41;30.24;96543.72;107556;1270;34686;-79
2022/06/24 10:37:31;;;;;;;1.40;1.00;;;;;;;26.31;31.11;96536.19;107569;1271;33159;-79
2022/06/24 10:40:03;;;;;;;2.60;1.20;;;;;;;26.37;29.89;96540.13;105882;1270;2267273;-80
2022/06/24 10:42:35;;;;;;;1.30;1.20;;;;;;;26.40;29.97;96534.01;107607;1271;52175;-80
2022/06/24 10:45:08;;;;;;;1.70;1.50;;;;;;;26.61;29.94;96536.57;107655;1271;32068;-80
2022/06/24 10:47:45;;;;;;;1.50;1.30;;;;;;;26.64;29.68;96534.64;107593;1270;45426;-79
2022/06/24 10:50:21;;;;;;;2.10;1.20;;;;;;;26.71;30.17;96528.44;107642;1270;36989;-79
2022/06/24 10:53:02;;;;;;;3.70;1.30;;;;;;;26.79;31.18;96528.52;107588;1270;38657;-79
2022/06/24 10:55:43;;;;;;;3.70;1.50;;;;;;;26.96;29.53;96527.77;107591;1270;43641;-80
2022/06/24 10:58:16;;;;;;;;;;;;;;;26.78;29.03;96527.73;107543;1270;66992;-79
2022/06/24 11:00:53;;;;;;;2.00;1.00;;;;;;;26.67;27.96;96529.81;107534;1271;36218;-80
2022/06/24 11:03:38;;;;;;;1.00;0.90;;;;;;;26.71;28.15;96519.72;107641;1271;42889;-80
2022/06/24 11:06:12;;;;;;;2.70;1.30;;;;;;;27.03;28.45;96522.05;107561;1270;47809;-79
2022/06/24 11:08:43;;;;;;;1.30;0.90;;;;;;;27.07;27.87;96522.14;107569;1270;34914;-80
2022/06/24 11:11:27;;;;;;;1.90;1.20;;;;;;;26.86;27.55;96512.91;107568;1271;32550;-79
2022/06/24 11:13:58;;;;;;;1.50;1.00;;;;;;;27.01;28.75;96512.64;107521;1270;56774;-80
2022/06/24 11:16:32;;;;;;;3.20;1.00;;;;;;;27.26;28.72;96511.02;107560;1271;34424;-80
2022/06/24 11:19:04;;;;;;;1.00;0.90;;;;;;;27.30;28.57;96507.75;107588;1271;36282;-80
2022/06/24 11:21:48;;;;;;;1.40;1.10;;;;;;;27.21;27.06;96504.26;107603;1271;36543;-80
2022/06/24 11:24:23;;;;;;;1.20;1.10;;;;;;;27.09;27.59;96501.46;107632;1270;48288;-80
2022/06/24 11:27:08;;;;;;;1.30;1.00;;;;;;;27.14;28.76;96496.17;107537;1271;41828;-80
2022/06/24 11:29:56;;;;;;;2.70;1.10;;;;;;;27.50;28.27;96490.55;107500;1271;58918;-79
2022/06/24 11:32:27;;;;;;;1.80;1.20;;;;;;;27.31;27.80;96492.98;107616;1270;34794;-79
2022/06/24 11:34:59;;;;;;;3.10;1.60;;;;;;;27.04;28.14;96489.09;107590;1270;41355;-79
2022/06/24 11:37:31;;;;;;;1.00;0.90;;;;;;;26.87;28.37;96488.43;107530;1270;69504;-79
2022/06/24 11:40:03;;;;;;;2.00;1.30;;;;;;;26.69;28.21;96489.35;107491;1271;49448;-79
2022/06/24 11:42:34;;;;;;;1.20;1.10;;;;;;;26.61;28.74;96483.50;107567;1270;36883;-81
2022/06/24 11:45:07;;;;;;;1.20;1.10;;;;;;;26.65;28.37;96480.79;107617;1270;47607;-80
2022/06/24 11:47:38;;;;;;;1.50;1.00;;;;;;;26.73;28.61;96479.33;107602;1271;47970;-80
2022/06/24 11:50:20;;;;;;;0.90;0.90;;;;;;;26.81;28.70;96474.91;107445;1270;54624;-78
2022/06/24 11:52:51;;;;;;;1.30;1.00;;;;;;;26.82;28.98;96476.45;107613;1270;39258;-79
2022/06/24 11:55:31;;;;;;;1.60;1.10;;;;;;;26.90;28.96;96468.08;107388;1270;143999;-79
2022/06/24 11:58:05;;;;;;;1.60;1.40;;;;;;;27.01;28.71;96467.94;107495;1270;68230;-79
2022/06/24 12:00:39;;;;;;;1.40;1.00;;;;;;;26.91;28.67;96465.05;107613;1270;61833;-79
2022/06/24 12:03:11;;;;;;;1.50;1.20;;;;;;;26.82;28.57;96463.25;107557;1270;31745;-77